JST221 YSSY-NZQN
Flight info
| Callsign | JST221 |
|---|---|
| Flight time | N/A |
| Altitude | 35000 |
| Route | OPTIC Y84 TONIM P766 ADKOS |
| Aircraft | A320/M-SDE3FGHIRWY/LB1 |
Departure
| Time | N/A |
|---|---|
| Airport | Sydney Kingsford Smith International Airport (YSSY) |
Arrival
| Time | 2026-04-30 14:45 |
|---|---|
| Airport | Queenstown Airport (NZQN) |
| Time | Latitude | Longitude | Altitude | Speed | Heading |
|---|---|---|---|---|---|
| 2026-04-30 14:14 | -44.08783 | 165.91471 | 35658 ft | 438 kts | 134° |
| 2026-04-30 14:15 | -44.10795 | 165.94645 | 35659 ft | 438 kts | 134° |
| 2026-04-30 14:15 | -44.14799 | 166.01054 | 35660 ft | 439 kts | 133° |
| 2026-04-30 14:16 | -44.18580 | 166.07771 | 35662 ft | 441 kts | 130° |
| 2026-04-30 14:16 | -44.22693 | 166.15530 | 35665 ft | 441 kts | 130° |
| 2026-04-30 14:17 | -44.30072 | 166.29223 | 35667 ft | 441 kts | 130° |
| 2026-04-30 14:17 | -44.37501 | 166.42866 | 35664 ft | 441 kts | 130° |
| 2026-04-30 14:18 | -44.44899 | 166.56587 | 35662 ft | 442 kts | 130° |
| 2026-04-30 14:18 | -44.51141 | 166.68250 | 35657 ft | 442 kts | 130° |
| 2026-04-30 14:19 | -44.54822 | 166.75126 | 35433 ft | 435 kts | 130° |
| 2026-04-30 14:19 | -44.56626 | 166.78500 | 34924 ft | 432 kts | 130° |
| 2026-04-30 14:19 | -44.58366 | 166.81859 | 34405 ft | 430 kts | 126° |
| 2026-04-30 14:20 | -44.59805 | 166.85619 | 33826 ft | 435 kts | 116° |
| 2026-04-30 14:20 | -44.60784 | 166.89626 | 33272 ft | 441 kts | 107° |
| 2026-04-30 14:20 | -44.61340 | 166.98276 | 32194 ft | 452 kts | 90° |
| 2026-04-30 14:21 | -44.61170 | 167.02671 | 31668 ft | 452 kts | 90° |
| 2026-04-30 14:21 | -44.61004 | 167.07068 | 31161 ft | 453 kts | 90° |
| 2026-04-30 14:21 | -44.60672 | 167.15938 | 30041 ft | 456 kts | 90° |
| 2026-04-30 14:22 | -44.60503 | 167.20384 | 29463 ft | 457 kts | 89° |
| 2026-04-30 14:22 | -44.60150 | 167.29330 | 28333 ft | 461 kts | 89° |
| 2026-04-30 14:22 | -44.59980 | 167.33834 | 27786 ft | 462 kts | 91° |
| 2026-04-30 14:23 | -44.60388 | 167.42823 | 26724 ft | 464 kts | 97° |
| 2026-04-30 14:23 | -44.60909 | 167.51889 | 25704 ft | 467 kts | 96° |
| 2026-04-30 14:24 | -44.61415 | 167.60949 | 24725 ft | 468 kts | 96° |
| 2026-04-30 14:24 | -44.61661 | 167.65479 | 24237 ft | 466 kts | 96° |
| 2026-04-30 14:25 | -44.62150 | 167.74479 | 23106 ft | 460 kts | 95° |
| 2026-04-30 14:25 | -44.62624 | 167.83377 | 22010 ft | 453 kts | 95° |
| 2026-04-30 14:26 | -44.63077 | 167.92165 | 20964 ft | 448 kts | 95° |
| 2026-04-30 14:26 | -44.63296 | 167.96430 | 20420 ft | 445 kts | 95° |
| 2026-04-30 14:26 | -44.63739 | 168.05029 | 19315 ft | 439 kts | 94° |
| 2026-04-30 14:27 | -44.63959 | 168.09312 | 18759 ft | 437 kts | 94° |
| 2026-04-30 14:27 | -44.64178 | 168.13552 | 18151 ft | 434 kts | 94° |
| 2026-04-30 14:27 | -44.64393 | 168.17770 | 17545 ft | 431 kts | 94° |
| 2026-04-30 14:28 | -44.64804 | 168.26088 | 16385 ft | 423 kts | 94° |
| 2026-04-30 14:28 | -44.65000 | 168.30182 | 15808 ft | 414 kts | 94° |
| 2026-04-30 14:28 | -44.65181 | 168.33953 | 15276 ft | 395 kts | 94° |
| 2026-04-30 14:28 | -44.65490 | 168.37698 | 14729 ft | 379 kts | 103° |
| 2026-04-30 14:29 | -44.67670 | 168.44032 | 13611 ft | 348 kts | 132° |
| 2026-04-30 14:29 | -44.71170 | 168.48323 | 12536 ft | 324 kts | 145° |
| 2026-04-30 14:30 | -44.73484 | 168.50858 | 11871 ft | 313 kts | 144° |
| 2026-04-30 14:31 | -44.74819 | 168.52341 | 11476 ft | 307 kts | 144° |
| 2026-04-30 14:31 | -44.78157 | 168.54790 | 11011 ft | 297 kts | 171° |
| 2026-04-30 14:31 | -44.80191 | 168.55153 | 11021 ft | 293 kts | 184° |
| 2026-04-30 14:32 | -44.84117 | 168.54064 | 11018 ft | 287 kts | 202° |
| 2026-04-30 14:32 | -44.86016 | 168.53167 | 11018 ft | 287 kts | 202° |
| 2026-04-30 14:32 | -44.87912 | 168.52275 | 11019 ft | 287 kts | 202° |
| 2026-04-30 14:33 | -44.89800 | 168.51383 | 11017 ft | 287 kts | 202° |
| 2026-04-30 14:33 | -44.93571 | 168.49596 | 11015 ft | 286 kts | 205° |
| 2026-04-30 14:33 | -44.95304 | 168.48242 | 11014 ft | 281 kts | 220° |
| 2026-04-30 14:34 | -44.96700 | 168.46338 | 11013 ft | 277 kts | 234° |
| 2026-04-30 14:34 | -44.97706 | 168.44040 | 11019 ft | 275 kts | 246° |
| 2026-04-30 14:34 | -44.98548 | 168.41623 | 10851 ft | 274 kts | 245° |
| 2026-04-30 14:34 | -44.99393 | 168.39216 | 10516 ft | 272 kts | 245° |
| 2026-04-30 14:35 | -45.01053 | 168.34490 | 10018 ft | 260 kts | 245° |
| 2026-04-30 14:35 | -45.01826 | 168.32295 | 10016 ft | 247 kts | 245° |
| 2026-04-30 14:35 | -45.02655 | 168.30141 | 10024 ft | 251 kts | 238° |
| 2026-04-30 14:36 | -45.03772 | 168.28249 | 10020 ft | 253 kts | 226° |
| 2026-04-30 14:36 | -45.05172 | 168.26714 | 10024 ft | 257 kts | 214° |
| 2026-04-30 14:36 | -45.06793 | 168.25630 | 10021 ft | 260 kts | 202° |
| 2026-04-30 14:36 | -45.08550 | 168.25058 | 10021 ft | 264 kts | 190° |
| 2026-04-30 14:37 | -45.10435 | 168.25032 | 9659 ft | 272 kts | 176° |
| 2026-04-30 14:37 | -45.12283 | 168.25643 | 9284 ft | 276 kts | 162° |
| 2026-04-30 14:37 | -45.13966 | 168.26895 | 8912 ft | 271 kts | 144° |
| 2026-04-30 14:37 | -45.15261 | 168.28739 | 8634 ft | 261 kts | 127° |
| 2026-04-30 14:38 | -45.16117 | 168.30995 | 8221 ft | 259 kts | 109° |
| 2026-04-30 14:38 | -45.16470 | 168.33449 | 7833 ft | 250 kts | 90° |
| 2026-04-30 14:38 | -45.16326 | 168.35860 | 7477 ft | 244 kts | 74° |
| 2026-04-30 14:38 | -45.15741 | 168.38067 | 7100 ft | 236 kts | 58° |
| 2026-04-30 14:39 | -45.14972 | 168.40091 | 6759 ft | 229 kts | 58° |
| 2026-04-30 14:39 | -45.14244 | 168.42033 | 6444 ft | 219 kts | 59° |
| 2026-04-30 14:39 | -45.13549 | 168.43902 | 6178 ft | 209 kts | 59° |
| 2026-04-30 14:40 | -45.12244 | 168.47414 | 5572 ft | 192 kts | 59° |
| 2026-04-30 14:40 | -45.11637 | 168.49040 | 5166 ft | 185 kts | 59° |
| 2026-04-30 14:40 | -45.11053 | 168.50603 | 4692 ft | 171 kts | 59° |
| 2026-04-30 14:40 | -45.10514 | 168.52048 | 4242 ft | 161 kts | 59° |
| 2026-04-30 14:41 | -45.09999 | 168.53420 | 3825 ft | 153 kts | 59° |
| 2026-04-30 14:41 | -45.09522 | 168.54691 | 3591 ft | 143 kts | 60° |
| 2026-04-30 14:41 | -45.09060 | 168.55915 | 3471 ft | 142 kts | 60° |
| 2026-04-30 14:41 | -45.08595 | 168.57145 | 3385 ft | 141 kts | 60° |
| 2026-04-30 14:42 | -45.08126 | 168.58387 | 3313 ft | 141 kts | 60° |
| 2026-04-30 14:42 | -45.07673 | 168.59588 | 3246 ft | 140 kts | 60° |
| 2026-04-30 14:42 | -45.07210 | 168.60821 | 3187 ft | 140 kts | 60° |
| 2026-04-30 14:42 | -45.06761 | 168.62013 | 3122 ft | 139 kts | 60° |
| 2026-04-30 14:43 | -45.06302 | 168.63234 | 3002 ft | 138 kts | 60° |
| 2026-04-30 14:43 | -45.05863 | 168.64401 | 2798 ft | 136 kts | 60° |
| 2026-04-30 14:43 | -45.05416 | 168.65583 | 2615 ft | 136 kts | 60° |
| 2026-04-30 14:43 | -45.04961 | 168.66761 | 2405 ft | 137 kts | 60° |
| 2026-04-30 14:44 | -45.04416 | 168.67871 | 2175 ft | 139 kts | 47° |
| 2026-04-30 14:44 | -45.03708 | 168.68800 | 1973 ft | 139 kts | 38° |
| 2026-04-30 14:44 | -45.02987 | 168.69693 | 1761 ft | 136 kts | 46° |
| 2026-04-30 14:44 | -45.02457 | 168.70773 | 1590 ft | 133 kts | 64° |
| 2026-04-30 14:45 | -45.02239 | 168.72033 | 1409 ft | 133 kts | 78° |
| 2026-04-30 14:45 | -45.02042 | 168.73297 | 1247 ft | 132 kts | 78° |
| 2026-04-30 14:45 | -45.01854 | 168.74500 | 1170 ft | 106 kts | 78° |
| 2026-04-30 14:45 | -45.01752 | 168.75152 | 1170 ft | 47 kts | 77° |
| 2026-04-30 14:46 | -45.01698 | 168.75493 | 1174 ft | 23 kts | 77° |
| 2026-04-30 14:46 | -45.01676 | 168.75637 | 1172 ft | 8 kts | 78° |
| 2026-04-30 14:46 | -45.01673 | 168.75708 | 1174 ft | 6 kts | 89° |
| 2026-04-30 14:46 | -45.01664 | 168.75732 | 1173 ft | 1 kts | 14° |
| 2026-04-30 14:47 | -45.01659 | 168.75701 | 1169 ft | 9 kts | 253° |
| 2026-04-30 14:47 | -45.01681 | 168.75593 | 1170 ft | 13 kts | 259° |
| 2026-04-30 14:47 | -45.01703 | 168.75454 | 1174 ft | 16 kts | 257° |
| 2026-04-30 14:47 | -45.01729 | 168.75289 | 1174 ft | 19 kts | 257° |
| 2026-04-30 14:48 | -45.01758 | 168.75104 | 1174 ft | 19 kts | 258° |
| 2026-04-30 14:48 | -45.01786 | 168.74928 | 1174 ft | 18 kts | 256° |
| 2026-04-30 14:48 | -45.01814 | 168.74753 | 1174 ft | 18 kts | 257° |
| 2026-04-30 14:48 | -45.01841 | 168.74578 | 1172 ft | 18 kts | 256° |
| 2026-04-30 14:49 | -45.01871 | 168.74389 | 1172 ft | 19 kts | 257° |
| 2026-04-30 14:49 | -45.01896 | 168.74226 | 1171 ft | 14 kts | 257° |
| 2026-04-30 14:49 | -45.01916 | 168.74137 | 1170 ft | 7 kts | 228° |
| 2026-04-30 14:49 | -45.01966 | 168.74103 | 1174 ft | 9 kts | 201° |
| 2026-04-30 14:50 | -45.02060 | 168.74052 | 1170 ft | 8 kts | 186° |
| 2026-04-30 14:50 | -45.02104 | 168.74103 | 1173 ft | 10 kts | 116° |
| 2026-04-30 14:51 | -45.02149 | 168.74163 | 1170 ft | 1 kts | 238° |
| 2026-04-30 14:51 | -45.02151 | 168.74150 | 1171 ft | 2 kts | 258° |
| 2026-04-30 14:51 | -45.02162 | 168.74099 | 1173 ft | 3 kts | 252° |
| 2026-04-30 14:52 | -45.02163 | 168.74092 | 1174 ft | 0 kts | 251° |